createdAt,value
2023-03-11T00:00:55.369Z,14.01
2023-03-11T00:03:27.638Z,14.01
2023-03-11T00:05:54.870Z,14.01
2023-03-11T00:08:24.472Z,14.02
2023-03-11T00:10:53.933Z,14.01
2023-03-11T00:13:21.212Z,14.01
2023-03-11T00:15:50.485Z,13.98
2023-03-11T00:18:17.910Z,14.00
2023-03-11T00:20:46.377Z,13.94
2023-03-11T00:23:15.159Z,13.89
2023-03-11T00:25:44.529Z,13.86
2023-03-11T00:28:11.964Z,13.80
2023-03-11T00:30:39.804Z,13.72
2023-03-11T00:33:07.131Z,13.54
2023-03-11T00:35:34.977Z,13.37
2023-03-11T00:38:07.340Z,13.25
2023-03-11T00:40:36.182Z,13.18
2023-03-11T00:43:03.695Z,13.16
2023-03-11T00:45:30.856Z,13.14
2023-03-11T00:47:58.035Z,13.11
2023-03-11T00:50:28.569Z,13.06
2023-03-11T00:52:55.430Z,12.98
2023-03-11T00:55:25.302Z,12.93
2023-03-11T00:57:55.201Z,12.88
2023-03-11T01:00:24.983Z,12.83
2023-03-11T01:02:53.371Z,12.81
2023-03-11T01:05:26.335Z,12.79
2023-03-11T01:07:53.183Z,12.76
2023-03-11T01:10:20.321Z,12.74
2023-03-11T01:12:47.170Z,12.73
2023-03-11T01:15:22.437Z,12.71
2023-03-11T01:17:49.063Z,12.66
2023-03-11T01:20:16.145Z,12.62
2023-03-11T01:22:45.054Z,12.58
2023-03-11T01:25:17.108Z,12.52
2023-03-11T01:27:44.835Z,12.47
2023-03-11T01:30:16.388Z,12.43
2023-03-11T01:32:43.897Z,12.41
2023-03-11T01:35:15.649Z,12.37
2023-03-11T01:37:42.315Z,12.33
2023-03-11T01:40:15.368Z,12.27
2023-03-11T01:42:42.070Z,12.24
2023-03-11T01:45:33.090Z,12.20
2023-03-11T01:48:00.199Z,12.13
2023-03-11T01:50:34.789Z,12.03
2023-03-11T01:53:02.342Z,11.91
2023-03-11T01:55:31.235Z,11.85
2023-03-11T01:57:59.540Z,11.84
2023-03-11T02:00:26.336Z,11.83
2023-03-11T02:02:56.127Z,11.82
2023-03-11T02:05:24.609Z,11.79
2023-03-11T02:07:54.689Z,11.77
2023-03-11T02:10:22.559Z,11.74
2023-03-11T02:12:50.944Z,11.70
2023-03-11T02:15:25.040Z,11.63
2023-03-11T02:17:52.735Z,11.58
2023-03-11T02:21:04.978Z,11.53
2023-03-11T02:24:13.204Z,11.48
2023-03-11T02:26:40.032Z,11.43
2023-03-11T02:29:09.461Z,11.38
2023-03-11T02:31:41.796Z,11.35
2023-03-11T02:34:21.368Z,11.32
2023-03-11T02:36:48.688Z,11.29
2023-03-11T02:39:15.845Z,11.26
2023-03-11T02:41:47.322Z,11.23
2023-03-11T02:44:16.424Z,11.19
2023-03-11T02:46:45.095Z,11.15
2023-03-11T02:49:12.481Z,11.13
2023-03-11T02:51:39.112Z,11.11
2023-03-11T02:54:06.794Z,11.09
2023-03-11T02:56:33.752Z,11.06
2023-03-11T02:59:00.381Z,11.02
2023-03-11T03:01:28.624Z,10.99
2023-03-11T03:03:55.366Z,10.95
2023-03-11T03:06:22.214Z,10.93
2023-03-11T03:08:49.714Z,10.91
2023-03-11T03:11:16.926Z,10.87
2023-03-11T03:13:43.549Z,10.77
2023-03-11T03:16:10.191Z,10.76
2023-03-11T03:18:37.221Z,10.73
2023-03-11T03:21:04.541Z,10.73
2023-03-11T03:23:35.369Z,10.76
2023-03-11T03:26:02.446Z,10.77
2023-03-11T03:28:29.819Z,10.75
2023-03-11T03:30:56.732Z,10.73
2023-03-11T03:33:23.450Z,10.72
2023-03-11T03:35:50.265Z,10.74
2023-03-11T03:38:21.303Z,10.75
2023-03-11T03:40:49.056Z,10.76
2023-03-11T03:43:17.789Z,10.77
2023-03-11T03:45:44.940Z,10.78
2023-03-11T03:48:11.726Z,10.78
2023-03-11T03:50:41.286Z,10.79
2023-03-11T03:53:08.303Z,10.80
2023-03-11T03:55:35.058Z,10.80
2023-03-11T03:58:01.950Z,10.79
2023-03-11T04:00:31.790Z,10.81
2023-03-11T04:03:00.155Z,10.83
2023-03-11T04:05:36.696Z,10.82
2023-03-11T04:08:03.793Z,10.82
2023-03-11T04:10:30.851Z,10.82
2023-03-11T04:12:58.126Z,10.83
2023-03-11T04:15:26.128Z,10.85
2023-03-11T04:17:53.290Z,10.85
2023-03-11T04:20:20.094Z,10.87
2023-03-11T04:22:48.311Z,10.88
2023-03-11T04:25:15.400Z,10.88
2023-03-11T04:27:45.939Z,10.88
2023-03-11T04:30:13.452Z,10.86
2023-03-11T04:32:40.388Z,10.85
2023-03-11T04:35:07.468Z,10.85
2023-03-11T04:37:34.481Z,10.85
2023-03-11T04:40:01.287Z,10.85
2023-03-11T04:42:29.536Z,10.86
2023-03-11T04:44:56.262Z,10.84
2023-03-11T04:47:23.428Z,10.80
2023-03-11T04:49:50.157Z,10.77
2023-03-11T04:52:16.965Z,10.75
2023-03-11T04:54:43.614Z,10.76
2023-03-11T04:57:10.426Z,10.77
2023-03-11T04:59:38.380Z,10.79
2023-03-11T05:02:05.122Z,10.81
2023-03-11T05:04:32.324Z,10.82
2023-03-11T05:06:59.555Z,10.83
2023-03-11T05:09:26.625Z,10.81
2023-03-11T05:11:53.997Z,10.81
2023-03-11T05:14:20.984Z,10.83
2023-03-11T05:16:48.086Z,10.88
2023-03-11T05:19:35.417Z,10.92
2023-03-11T05:22:10.369Z,10.92
2023-03-11T05:24:37.352Z,10.90
2023-03-11T05:27:04.932Z,10.88
2023-03-11T05:29:32.924Z,10.86
2023-03-11T05:31:59.596Z,10.84
2023-03-11T05:34:26.362Z,10.85
2023-03-11T05:36:53.136Z,10.85
2023-03-11T05:39:20.306Z,10.84
2023-03-11T05:41:47.824Z,10.82
2023-03-11T05:44:15.089Z,10.81
2023-03-11T05:46:42.235Z,10.81
2023-03-11T05:49:09.853Z,10.80
2023-03-11T05:51:37.722Z,10.80
2023-03-11T05:54:04.624Z,10.81
2023-03-11T05:56:37.689Z,10.81
2023-03-11T05:59:04.896Z,10.82
2023-03-11T06:01:34.053Z,10.82
2023-03-11T06:04:01.499Z,10.83
2023-03-11T06:06:28.396Z,10.85
2023-03-11T06:08:55.316Z,10.87
2023-03-11T06:11:26.960Z,10.93
2023-03-11T06:13:55.321Z,10.96
2023-03-11T06:16:24.178Z,10.99
2023-03-11T06:18:52.222Z,10.98
2023-03-11T06:21:24.028Z,10.97
2023-03-11T06:23:50.876Z,10.96
2023-03-11T06:26:20.476Z,10.93
2023-03-11T06:28:48.595Z,10.89
2023-03-11T06:31:25.612Z,10.88
2023-03-11T06:33:56.053Z,10.95
2023-03-11T06:36:23.554Z,11.06
2023-03-11T06:38:52.506Z,11.20
2023-03-11T06:41:19.563Z,11.32
2023-03-11T06:43:46.242Z,11.45
2023-03-11T06:46:22.452Z,11.62
2023-03-11T06:48:52.373Z,11.77
2023-03-11T06:51:21.264Z,11.91
2023-03-11T06:53:54.804Z,12.04
2023-03-11T06:56:23.427Z,12.18
2023-03-11T06:58:59.976Z,12.34
2023-03-11T07:01:30.183Z,12.48
2023-03-11T07:03:57.355Z,12.60
2023-03-11T07:06:26.149Z,12.76
2023-03-11T07:08:57.718Z,12.92
2023-03-11T07:11:28.427Z,13.08
2023-03-11T07:14:00.273Z,13.26
2023-03-11T07:16:30.769Z,13.40
2023-03-11T07:19:03.465Z,13.48
2023-03-11T07:21:31.734Z,13.58
2023-03-11T07:24:01.247Z,13.73
2023-03-11T07:26:29.374Z,13.86
2023-03-11T07:28:57.070Z,13.81
2023-03-11T07:31:26.970Z,13.84
2023-03-11T07:33:54.058Z,13.98
2023-03-11T07:36:22.563Z,14.13
2023-03-11T07:38:49.805Z,14.35
2023-03-11T07:41:16.679Z,14.49
2023-03-11T07:43:44.175Z,14.52
2023-03-11T07:46:14.278Z,14.53
2023-03-11T07:48:40.991Z,14.54
2023-03-11T07:51:12.612Z,14.52
2023-03-11T07:53:40.794Z,14.51
2023-03-11T07:56:09.071Z,14.50
2023-03-11T07:58:35.920Z,14.46
2023-03-11T08:01:07.684Z,14.38
2023-03-11T08:03:35.442Z,14.30
2023-03-11T08:06:02.696Z,14.26
2023-03-11T08:08:29.270Z,14.21
2023-03-11T08:10:55.919Z,14.03
2023-03-11T08:13:22.577Z,13.91
2023-03-11T08:15:49.311Z,13.87
2023-03-11T08:18:17.093Z,13.86
2023-03-11T08:20:45.503Z,13.93
2023-03-11T08:23:12.241Z,14.00
2023-03-11T08:25:40.222Z,14.03
2023-03-11T08:28:07.760Z,14.01
2023-03-11T08:30:35.123Z,14.01
2023-03-11T08:33:01.811Z,14.02
2023-03-11T08:35:28.497Z,14.10
2023-03-11T08:37:55.201Z,14.17
2023-03-11T08:40:21.992Z,14.17
2023-03-11T08:42:49.093Z,14.11
2023-03-11T08:45:16.015Z,14.08
2023-03-11T08:47:43.064Z,14.10
2023-03-11T08:50:14.622Z,14.04
2023-03-11T08:52:41.489Z,14.00
2023-03-11T08:55:16.603Z,14.07
2023-03-11T08:57:43.357Z,14.20
2023-03-11T09:00:13.224Z,14.37
2023-03-11T09:02:41.610Z,14.67
2023-03-11T09:05:08.786Z,15.02
2023-03-11T09:07:35.753Z,15.38
2023-03-11T09:10:02.699Z,15.71
2023-03-11T09:12:30.453Z,16.04
2023-03-11T09:14:57.274Z,16.17
2023-03-11T09:17:23.910Z,16.36
2023-03-11T09:19:50.661Z,16.53
2023-03-11T09:22:17.637Z,16.79
2023-03-11T09:24:44.380Z,17.06
2023-03-11T09:27:13.147Z,17.32
2023-03-11T09:29:39.747Z,17.52
2023-03-11T09:32:06.669Z,17.69
2023-03-11T09:34:33.377Z,17.83
2023-03-11T09:37:01.680Z,18.05
2023-03-11T09:39:28.306Z,18.04
2023-03-11T09:41:59.323Z,18.04
2023-03-11T09:44:38.203Z,18.05
2023-03-11T09:47:22.912Z,18.22
2023-03-11T09:50:18.345Z,18.42
2023-03-11T09:53:10.646Z,18.73
2023-03-11T09:55:53.983Z,18.94
2023-03-11T09:58:38.353Z,18.82
2023-03-11T10:01:15.512Z,18.48
2023-03-11T10:03:44.419Z,18.52
2023-03-11T10:06:26.101Z,18.67
2023-03-11T10:09:27.155Z,18.71
2023-03-11T10:12:03.108Z,18.48
2023-03-11T10:14:29.682Z,18.22
2023-03-11T10:17:08.606Z,18.40
2023-03-11T10:19:35.145Z,18.58
2023-03-11T10:22:27.124Z,18.36
2023-03-11T10:25:14.732Z,18.25
2023-03-11T10:27:55.030Z,18.15
2023-03-11T10:30:24.906Z,18.07
2023-03-11T10:33:22.506Z,18.05
2023-03-11T10:35:54.943Z,18.12
2023-03-11T10:38:42.327Z,17.84
2023-03-11T10:41:32.269Z,17.56
2023-03-11T10:44:19.151Z,17.58
2023-03-11T10:46:45.800Z,17.60
2023-03-11T10:49:15.601Z,17.61
2023-03-11T10:51:46.320Z,17.56
2023-03-11T10:54:33.072Z,17.51
2023-03-11T10:57:03.005Z,17.44
2023-03-11T10:59:46.364Z,17.32
2023-03-11T11:02:27.529Z,17.27
2023-03-11T11:05:05.801Z,17.22
2023-03-11T11:07:41.257Z,17.05
2023-03-11T11:10:13.841Z,17.10
2023-03-11T11:13:02.074Z,17.21
2023-03-11T11:15:34.445Z,17.33
2023-03-11T11:18:07.150Z,17.56
2023-03-11T11:20:34.777Z,17.97
2023-03-11T11:23:03.912Z,18.42
2023-03-11T11:25:33.069Z,18.46
2023-03-11T11:28:15.862Z,18.41
2023-03-11T11:31:00.527Z,18.21
2023-03-11T11:33:40.284Z,18.36
2023-03-11T11:36:15.108Z,18.49
2023-03-11T11:38:42.478Z,18.43
2023-03-11T11:41:16.810Z,18.72
2023-03-11T11:43:46.470Z,18.82
2023-03-11T11:46:30.336Z,19.06
2023-03-11T11:49:02.647Z,19.16
2023-03-11T11:51:41.142Z,19.30
2023-03-11T11:54:10.429Z,19.56
2023-03-11T11:56:37.083Z,19.50
2023-03-11T11:59:15.129Z,19.64
2023-03-11T12:02:03.886Z,19.70
2023-03-11T12:05:09.427Z,19.71
2023-03-11T12:07:39.551Z,19.80
2023-03-11T12:10:23.351Z,19.90
2023-03-11T12:13:29.290Z,19.84
2023-03-11T12:16:02.369Z,19.94
2023-03-11T12:18:31.927Z,20.02
2023-03-11T12:20:59.644Z,20.11
2023-03-11T12:23:48.118Z,20.11
2023-03-11T12:26:22.149Z,20.04
2023-03-11T12:28:57.395Z,19.87
2023-03-11T12:31:27.261Z,20.04
2023-03-11T12:34:03.251Z,20.00
2023-03-11T12:36:37.615Z,19.97
2023-03-11T12:39:07.673Z,20.22
2023-03-11T12:41:42.269Z,20.29
2023-03-11T12:44:28.996Z,20.12
2023-03-11T12:46:58.834Z,20.32
2023-03-11T12:49:31.092Z,20.41
2023-03-11T12:52:15.768Z,20.08
2023-03-11T12:54:43.544Z,20.02
2023-03-11T12:57:48.416Z,19.97
2023-03-11T13:00:39.419Z,20.04
2023-03-11T13:03:37.457Z,20.13
2023-03-11T13:06:30.086Z,20.13
2023-03-11T13:08:59.181Z,20.14
2023-03-11T13:11:34.420Z,20.02
2023-03-11T13:14:22.272Z,19.99
2023-03-11T13:16:50.289Z,19.87
2023-03-11T13:19:51.300Z,19.81
2023-03-11T13:22:44.475Z,19.53
2023-03-11T13:25:29.787Z,19.26
2023-03-11T13:28:08.106Z,19.40
2023-03-11T13:30:40.422Z,19.60
2023-03-11T13:33:40.480Z,19.63
2023-03-11T13:36:35.992Z,19.73
2023-03-11T13:39:31.578Z,19.72
2023-03-11T13:41:58.244Z,19.82
2023-03-11T13:44:29.552Z,19.66
2023-03-11T13:47:17.108Z,19.62
2023-03-11T13:50:17.102Z,19.52
2023-03-11T13:52:48.905Z,19.41
2023-03-11T13:55:22.294Z,19.54
2023-03-11T13:57:54.576Z,19.50
2023-03-11T14:00:28.573Z,19.19
2023-03-11T14:03:14.876Z,19.18
2023-03-11T14:05:46.501Z,19.10
2023-03-11T14:08:27.276Z,19.01
2023-03-11T14:10:57.062Z,19.02
2023-03-11T14:13:25.973Z,18.95
2023-03-11T14:16:14.656Z,18.96
2023-03-11T14:18:43.558Z,18.95
2023-03-11T14:21:19.058Z,18.96
2023-03-11T14:23:51.287Z,18.96
2023-03-11T14:26:21.113Z,18.93
2023-03-11T14:28:58.911Z,18.90
2023-03-11T14:31:33.159Z,18.91
2023-03-11T14:34:10.118Z,18.85
2023-03-11T14:36:45.519Z,18.79
2023-03-11T14:39:24.262Z,18.78
2023-03-11T14:41:55.510Z,18.76
2023-03-11T14:44:26.381Z,18.75
2023-03-11T14:47:02.922Z,18.73
2023-03-11T14:49:30.258Z,18.72
2023-03-11T14:52:04.181Z,18.68
2023-03-11T14:54:34.626Z,18.63
2023-03-11T14:57:18.409Z,18.57
2023-03-11T14:59:48.878Z,18.55
2023-03-11T15:02:18.522Z,18.49
2023-03-11T15:04:45.350Z,18.46
2023-03-11T15:07:13.658Z,18.43
2023-03-11T15:09:42.197Z,18.42
2023-03-11T15:12:41.324Z,18.42
2023-03-11T15:15:40.961Z,18.38
2023-03-11T15:18:24.324Z,18.35
2023-03-11T15:21:18.727Z,18.36
2023-03-11T15:23:49.228Z,18.37
2023-03-11T15:26:20.876Z,18.37
2023-03-11T15:28:54.529Z,18.39
2023-03-11T15:31:21.373Z,18.37
2023-03-11T15:33:49.129Z,18.36
2023-03-11T15:36:39.567Z,18.33
2023-03-11T15:39:26.444Z,18.31
2023-03-11T15:42:03.739Z,18.28
2023-03-11T15:44:40.770Z,18.28
2023-03-11T15:47:16.034Z,18.24
2023-03-11T15:49:42.752Z,18.24
2023-03-11T15:52:10.537Z,18.22
2023-03-11T15:54:37.735Z,18.18
2023-03-11T15:57:08.431Z,18.15
2023-03-11T15:59:37.338Z,18.11
2023-03-11T16:02:04.270Z,18.08
2023-03-11T16:04:30.967Z,18.06
2023-03-11T16:07:07.524Z,18.05
2023-03-11T16:09:35.402Z,18.05
2023-03-11T16:12:06.056Z,18.00
2023-03-11T16:14:32.717Z,17.95
2023-03-11T16:16:59.372Z,17.94
2023-03-11T16:19:26.068Z,17.92
2023-03-11T16:21:52.833Z,17.88
2023-03-11T16:24:22.533Z,17.86
2023-03-11T16:26:52.194Z,17.79
2023-03-11T16:29:20.182Z,17.74
2023-03-11T16:31:47.177Z,17.70
2023-03-11T16:34:13.782Z,17.67
2023-03-11T16:36:40.564Z,17.60
2023-03-11T16:39:07.203Z,17.57
2023-03-11T16:41:45.051Z,17.52
2023-03-11T16:44:11.914Z,17.48
2023-03-11T16:46:38.824Z,17.44
2023-03-11T16:49:05.696Z,17.43
2023-03-11T16:51:33.049Z,17.40
2023-03-11T16:54:00.164Z,17.37
2023-03-11T16:56:26.944Z,17.35
2023-03-11T16:58:53.639Z,17.31
2023-03-11T17:01:21.785Z,17.27
2023-03-11T17:03:50.828Z,17.21
2023-03-11T17:06:18.763Z,17.18
2023-03-11T17:08:49.394Z,17.13
2023-03-11T17:11:19.504Z,17.10
2023-03-11T17:13:46.393Z,17.09
2023-03-11T17:16:13.227Z,17.06
2023-03-11T17:18:40.105Z,17.04
2023-03-11T17:21:12.421Z,17.01
2023-03-11T17:23:39.340Z,16.97
2023-03-11T17:26:11.754Z,16.93
2023-03-11T17:28:40.181Z,16.92
2023-03-11T17:31:12.534Z,16.87
2023-03-11T17:33:39.389Z,16.84
2023-03-11T17:36:09.155Z,16.81
2023-03-11T17:38:35.763Z,16.78
2023-03-11T17:41:10.666Z,16.75
2023-03-11T17:43:37.303Z,16.72
2023-03-11T17:46:08.052Z,16.68
2023-03-11T17:48:34.730Z,16.65
2023-03-11T17:51:10.231Z,16.62
2023-03-11T17:53:41.201Z,16.58
2023-03-11T17:56:08.961Z,16.54
2023-03-11T17:58:35.985Z,16.50
2023-03-11T18:01:04.840Z,16.46
2023-03-11T18:03:31.490Z,16.42
2023-03-11T18:06:00.956Z,16.40
2023-03-11T18:08:28.311Z,16.36
2023-03-11T18:10:59.422Z,16.31
2023-03-11T18:13:26.812Z,16.30
2023-03-11T18:16:05.930Z,16.29
2023-03-11T18:18:35.204Z,16.28
2023-03-11T18:21:03.986Z,16.27
2023-03-11T18:23:33.226Z,16.25
2023-03-11T18:26:01.923Z,16.25
2023-03-11T18:28:29.371Z,16.25
2023-03-11T18:30:56.177Z,16.21
2023-03-11T18:33:24.594Z,16.18
2023-03-11T18:35:51.293Z,16.17
2023-03-11T18:38:17.938Z,16.16
2023-03-11T18:40:44.578Z,16.14
2023-03-11T18:43:14.727Z,16.13
2023-03-11T18:45:41.480Z,16.12
2023-03-11T18:48:08.110Z,16.10
2023-03-11T18:50:34.802Z,16.08
2023-03-11T18:53:01.946Z,16.08
2023-03-11T18:55:28.657Z,16.07
2023-03-11T18:57:55.313Z,16.06
2023-03-11T19:00:23.671Z,16.05
2023-03-11T19:02:52.143Z,16.03
2023-03-11T19:05:18.991Z,15.99
2023-03-11T19:07:45.737Z,15.98
2023-03-11T19:10:15.055Z,15.97
2023-03-11T19:12:43.759Z,15.95
2023-03-11T19:15:11.887Z,15.95
2023-03-11T19:17:38.568Z,15.93
2023-03-11T19:20:09.178Z,15.92
2023-03-11T19:22:37.205Z,15.90
2023-03-11T19:25:05.213Z,15.88
2023-03-11T19:27:32.267Z,15.88
2023-03-11T19:29:58.838Z,15.86
2023-03-11T19:32:25.450Z,15.87
2023-03-11T19:34:52.070Z,15.87
2023-03-11T19:37:18.716Z,15.86
2023-03-11T19:39:45.306Z,15.85
2023-03-11T19:42:11.983Z,15.80
2023-03-11T19:44:38.842Z,15.78
2023-03-11T19:47:05.601Z,15.74
2023-03-11T19:49:32.247Z,15.72
2023-03-11T19:51:59.016Z,15.61
2023-03-11T19:54:25.696Z,15.57
2023-03-11T19:56:52.349Z,15.51
2023-03-11T19:59:19.135Z,15.48
2023-03-11T20:01:45.912Z,15.44
2023-03-11T20:04:15.327Z,15.38
2023-03-11T20:06:42.442Z,15.36
2023-03-11T20:09:09.232Z,15.33
2023-03-11T20:11:40.241Z,15.28
2023-03-11T20:14:08.015Z,15.24
2023-03-11T20:16:34.767Z,15.22
2023-03-11T20:19:01.535Z,15.19
2023-03-11T20:21:28.332Z,15.14
2023-03-11T20:23:56.694Z,15.11
2023-03-11T20:26:24.229Z,14.97
2023-03-11T20:28:54.379Z,14.94
2023-03-11T20:31:23.691Z,14.88
2023-03-11T20:33:51.893Z,14.78
2023-03-11T20:36:22.720Z,14.68
2023-03-11T20:38:52.437Z,14.67
2023-03-11T20:41:19.261Z,14.58
2023-03-11T20:43:46.363Z,14.53
2023-03-11T20:46:13.200Z,14.50
2023-03-11T20:48:40.866Z,14.48
2023-03-11T20:51:10.808Z,14.43
2023-03-11T20:53:38.484Z,14.35
2023-03-11T20:56:08.702Z,14.35
2023-03-11T20:58:36.257Z,14.29
2023-03-11T21:01:13.441Z,14.29
2023-03-11T21:03:40.281Z,14.20
2023-03-11T21:06:14.474Z,14.19
2023-03-11T21:08:41.199Z,14.19
2023-03-11T21:11:07.891Z,14.18
2023-03-11T21:13:35.898Z,14.17
2023-03-11T21:16:04.725Z,14.13
2023-03-11T21:18:31.430Z,14.07
2023-03-11T21:20:58.615Z,14.05
2023-03-11T21:23:25.578Z,14.05
2023-03-11T21:25:59.674Z,13.99
2023-03-11T21:28:27.117Z,13.99
2023-03-11T21:30:58.932Z,13.96
2023-03-11T21:33:25.856Z,13.97
2023-03-11T21:35:58.065Z,13.95
2023-03-11T21:38:25.397Z,13.94
2023-03-11T21:40:53.583Z,13.95
2023-03-11T21:43:21.185Z,13.94
2023-03-11T21:45:47.928Z,13.92
2023-03-11T21:48:14.779Z,13.91
2023-03-11T21:50:42.216Z,13.90
2023-03-11T21:53:08.971Z,13.91
2023-03-11T21:55:35.624Z,13.93
2023-03-11T21:58:02.235Z,13.94
2023-03-11T22:00:28.982Z,13.95
2023-03-11T22:02:55.660Z,13.97
2023-03-11T22:05:22.420Z,13.98
2023-03-11T22:07:49.021Z,13.97
2023-03-11T22:10:16.085Z,13.98
2023-03-11T22:12:42.744Z,13.98
2023-03-11T22:15:10.046Z,13.99
2023-03-11T22:17:37.025Z,13.98
2023-03-11T22:20:05.892Z,13.99
2023-03-11T22:22:33.532Z,14.01
2023-03-11T22:25:00.310Z,14.01
2023-03-11T22:27:27.220Z,14.00
2023-03-11T22:29:53.801Z,14.00
2023-03-11T22:32:20.453Z,14.01
2023-03-11T22:34:47.227Z,14.02
2023-03-11T22:37:14.123Z,14.03
2023-03-11T22:39:40.856Z,14.02
2023-03-11T22:42:07.498Z,14.01
2023-03-11T22:44:34.093Z,13.98
2023-03-11T22:47:00.779Z,13.95
2023-03-11T22:49:27.466Z,13.90
2023-03-11T22:51:54.117Z,13.88
2023-03-11T22:54:20.801Z,13.86
2023-03-11T22:56:47.437Z,13.84
2023-03-11T22:59:14.080Z,13.83
2023-03-11T23:01:40.843Z,13.81
2023-03-11T23:04:07.510Z,13.78
2023-03-11T23:06:34.193Z,13.78
2023-03-11T23:09:00.808Z,13.75
2023-03-11T23:11:27.397Z,13.72
2023-03-11T23:13:54.053Z,13.70
2023-03-11T23:16:22.111Z,13.70
2023-03-11T23:18:51.405Z,13.68
2023-03-11T23:21:27.848Z,13.66
2023-03-11T23:23:56.015Z,13.64
2023-03-11T23:26:23.694Z,13.64
2023-03-11T23:28:53.840Z,13.64
2023-03-11T23:31:22.783Z,13.61
2023-03-11T23:33:50.091Z,13.60
2023-03-11T23:36:19.959Z,13.59
2023-03-11T23:38:47.649Z,13.58
2023-03-11T23:41:20.839Z,13.57
2023-03-11T23:43:47.883Z,13.56
2023-03-11T23:46:15.364Z,13.54
2023-03-11T23:48:42.087Z,13.53
2023-03-11T23:51:09.510Z,13.53
2023-03-11T23:53:37.134Z,13.52
2023-03-11T23:56:12.664Z,13.50
2023-03-11T23:58:39.358Z,13.51
